Time;durP1;ratioP1;P1;durP2;ratioP2;P2;SDS_P1;SDS_P2;PMS_P1;PMS_P2;Temp;Humidity;BMP_temperature;BMP_pressure;BME280_temperature;BME280_humidity;BME280_pressure;Samples;Min_cycle;Max_cycle;Signal;HPM_P1;HPM_P2
2021/05/25 00:02:22;;;;;;;6.23;5.73;;;;;;;;;;4992052;28;20454;-63
2021/05/25 00:04:49;;;;;;;6.37;5.87;;;;;;;;;;4992152;28;20501;-62
2021/05/25 00:07:16;;;;;;;6.13;5.73;;;;;;;;;;4991293;28;20471;-62
2021/05/25 00:09:42;;;;;;;5.80;5.40;;;;;;;;;;4992270;28;20816;-62
2021/05/25 00:12:09;;;;;;;5.60;5.20;;;;;;;;;;4992272;28;20535;-62
2021/05/25 00:14:36;;;;;;;6.70;6.10;;;;;;;;;;4991699;28;20450;-62
2021/05/25 00:17:02;;;;;;;6.07;5.67;;;;;;;;;;4991990;28;20905;-63
2021/05/25 00:19:29;;;;;;;6.17;5.77;;;;;;;;;;4991577;28;20969;-63
2021/05/25 00:21:56;;;;;;;6.70;6.20;;;;;;;;;;4991777;28;20453;-62
2021/05/25 00:24:23;;;;;;;6.60;6.17;;;;;;;;;;4992158;28;20466;-62
2021/05/25 00:26:50;;;;;;;6.47;6.07;;;;;;;;;;4991826;28;20840;-62
2021/05/25 00:29:16;;;;;;;6.20;5.80;;;;;;;;;;4992050;28;20459;-63
2021/05/25 00:31:43;;;;;;;6.13;5.63;;;;;;;;;;4991691;28;20867;-63
2021/05/25 00:34:09;;;;;;;6.27;5.83;;;;;;;;;;4990019;28;20455;-63
2021/05/25 00:36:36;;;;;;;6.07;5.67;;;;;;;;;;4992175;28;20498;-62
2021/05/25 00:39:04;;;;;;;6.70;6.20;;;;;;;;;;4995064;28;20508;-62
2021/05/25 00:41:31;;;;;;;6.93;6.43;;;;;;;;;;4998618;28;20512;-64
2021/05/25 00:43:58;;;;;;;6.43;5.93;;;;;;;;;;4998192;28;20446;-62
2021/05/25 00:46:24;;;;;;;6.10;5.70;;;;;;;;;;4997921;28;20965;-62
2021/05/25 00:48:51;;;;;;;6.37;5.90;;;;;;;;;;4980235;28;20459;-62
2021/05/25 00:51:18;;;;;;;6.00;5.60;;;;;;;;;;4995695;28;20463;-62
2021/05/25 00:53:44;;;;;;;6.37;5.97;;;;;;;;;;4995402;28;20504;-62
2021/05/25 00:56:12;;;;;;;6.53;6.10;;;;;;;;;;4995141;28;20541;-62
2021/05/25 00:58:39;;;;;;;6.10;5.70;;;;;;;;;;4995717;28;20450;-62
2021/05/25 01:01:06;;;;;;;5.70;5.30;;;;;;;;;;4994545;28;20458;-62
2021/05/25 01:03:33;;;;;;;5.80;5.40;;;;;;;;;;4995565;28;20454;-63
2021/05/25 01:06:00;;;;;;;5.97;5.60;;;;;;;;;;4994746;28;20454;-63
2021/05/25 01:08:27;;;;;;;6.67;6.10;;;;;;;;;;4995497;28;20457;-62
2021/05/25 01:10:57;;;;;;;6.37;5.90;;;;;;;;;;4995182;28;20458;-63
2021/05/25 01:13:27;;;;;;;5.93;5.53;;;;;;;;;;4994448;28;20961;-63
2021/05/25 01:15:54;;;;;;;6.77;6.27;;;;;;;;;;4990921;28;20487;-62
2021/05/25 01:18:21;;;;;;;6.03;5.63;;;;;;;;;;4982498;28;20467;-62
2021/05/25 01:20:48;;;;;;;6.20;5.80;;;;;;;;;;4995132;28;20446;-62
2021/05/25 01:23:16;;;;;;;5.67;5.30;;;;;;;;;;4994995;28;20458;-62
2021/05/25 01:25:45;;;;;;;6.30;5.80;;;;;;;;;;4994516;28;20455;-62
2021/05/25 01:28:12;;;;;;;5.63;5.27;;;;;;;;;;4994325;28;20467;-62
2021/05/25 01:30:40;;;;;;;6.13;5.77;;;;;;;;;;4994824;28;20454;-62
2021/05/25 01:33:08;;;;;;;6.10;5.73;;;;;;;;;;4995072;28;20455;-62
2021/05/25 01:35:35;;;;;;;6.40;5.93;;;;;;;;;;4994290;28;20455;-62
2021/05/25 01:38:02;;;;;;;6.10;5.70;;;;;;;;;;4994113;28;20478;-62
2021/05/25 01:40:30;;;;;;;5.73;5.43;;;;;;;;;;4993689;28;20593;-62
2021/05/25 01:42:57;;;;;;;6.30;5.90;;;;;;;;;;4978801;28;20567;-63
2021/05/25 01:45:24;;;;;;;6.00;5.70;;;;;;;;;;4989032;28;20464;-62
2021/05/25 01:47:51;;;;;;;6.43;6.00;;;;;;;;;;4994973;28;20474;-62
2021/05/25 01:50:18;;;;;;;5.90;5.50;;;;;;;;;;4992432;28;20454;-62
2021/05/25 01:52:56;;;;;;;6.67;6.17;;;;;;;;;;4994789;28;20447;-62
2021/05/25 01:55:34;;;;;;;6.50;6.00;;;;;;;;;;4986689;28;20462;-62
2021/05/25 01:58:02;;;;;;;6.27;5.87;;;;;;;;;;5004632;23;20499;-67
2021/05/25 02:00:28;;;;;;;7.60;6.90;;;;;;;;;;4973671;28;20462;-67
2021/05/25 02:02:55;;;;;;;6.80;6.40;;;;;;;;;;4974713;28;20458;-67
2021/05/25 02:05:22;;;;;;;6.90;6.50;;;;;;;;;;4973374;28;20471;-68
2021/05/25 02:07:50;;;;;;;7.10;6.60;;;;;;;;;;4974658;28;20475;-68
2021/05/25 02:10:30;;;;;;;7.87;7.27;;;;;;;;;;4973360;28;20459;-68
2021/05/25 02:12:59;;;;;;;7.40;6.90;;;;;;;;;;4974388;28;20470;-67
2021/05/25 02:15:26;;;;;;;7.30;6.80;;;;;;;;;;4973845;28;20462;-68
2021/05/25 02:17:52;;;;;;;7.43;6.90;;;;;;;;;;4973663;28;20468;-68
2021/05/25 02:20:19;;;;;;;7.83;7.33;;;;;;;;;;4974024;28;20451;-68
2021/05/25 02:22:46;;;;;;;7.70;7.10;;;;;;;;;;4974093;28;20447;-68
2021/05/25 02:25:13;;;;;;;7.90;7.30;;;;;;;;;;4973903;28;20458;-68
2021/05/25 02:27:40;;;;;;;7.97;7.43;;;;;;;;;;4973974;28;20474;-68
2021/05/25 02:30:08;;;;;;;7.50;7.10;;;;;;;;;;4973442;28;20975;-67
2021/05/25 02:32:34;;;;;;;7.80;7.20;;;;;;;;;;4971458;28;20458;-68
2021/05/25 02:35:01;;;;;;;8.70;7.87;;;;;;;;;;4973856;28;20455;-67
2021/05/25 02:37:28;;;;;;;7.97;7.47;;;;;;;;;;4973614;28;21005;-67
2021/05/25 02:39:54;;;;;;;8.00;7.50;;;;;;;;;;4973649;28;20458;-67
2021/05/25 02:42:21;;;;;;;7.70;7.10;;;;;;;;;;4955047;28;20458;-68
2021/05/25 02:44:47;;;;;;;8.83;8.03;;;;;;;;;;4964792;28;20451;-68
2021/05/25 02:47:15;;;;;;;7.23;6.83;;;;;;;;;;4963751;28;20479;-67
2021/05/25 02:49:41;;;;;;;7.80;7.37;;;;;;;;;;4973649;28;20473;-68
2021/05/25 02:52:08;;;;;;;7.90;7.40;;;;;;;;;;4973332;28;20455;-67
2021/05/25 02:54:35;;;;;;;8.40;7.63;;;;;;;;;;4974077;28;20451;-67
2021/05/25 02:57:01;;;;;;;7.90;7.20;;;;;;;;;;4973074;28;20494;-68
2021/05/25 02:59:28;;;;;;;7.83;7.33;;;;;;;;;;4974326;28;20456;-66
2021/05/25 03:01:54;;;;;;;8.33;7.63;;;;;;;;;;4955195;28;20488;-67
2021/05/25 03:04:22;;;;;;;7.77;7.27;;;;;;;;;;4972452;28;20459;-68
2021/05/25 03:06:49;;;;;;;7.43;7.00;;;;;;;;;;4973312;28;20942;-68
2021/05/25 03:09:15;;;;;;;8.20;7.60;;;;;;;;;;4972926;28;20819;-68
2021/05/25 03:11:42;;;;;;;7.43;6.93;;;;;;;;;;4973543;28;20453;-68
2021/05/25 03:14:08;;;;;;;7.80;7.30;;;;;;;;;;4971126;28;21010;-68
2021/05/25 03:16:35;;;;;;;7.97;7.30;;;;;;;;;;4973258;28;20491;-68
2021/05/25 03:19:02;;;;;;;8.03;7.50;;;;;;;;;;4972753;28;20475;-68
2021/05/25 03:21:29;;;;;;;8.93;8.33;;;;;;;;;;4973411;28;20451;-68
2021/05/25 03:23:56;;;;;;;8.10;7.50;;;;;;;;;;4972690;28;20845;-67
2021/05/25 03:26:22;;;;;;;8.20;7.57;;;;;;;;;;4973421;28;20451;-67
2021/05/25 03:28:49;;;;;;;7.73;7.23;;;;;;;;;;4964993;28;20477;-68
2021/05/25 03:31:16;;;;;;;8.07;7.47;;;;;;;;;;4953730;29;20483;-67
2021/05/25 03:33:42;;;;;;;8.17;7.67;;;;;;;;;;4962782;28;20463;-68
2021/05/25 03:36:09;;;;;;;8.00;7.40;;;;;;;;;;4972245;28;20826;-68
2021/05/25 03:38:37;;;;;;;8.50;8.00;;;;;;;;;;4972668;28;20542;-68
2021/05/25 03:41:03;;;;;;;8.30;7.73;;;;;;;;;;4973216;28;20510;-68
2021/05/25 03:43:30;;;;;;;8.87;8.10;;;;;;;;;;4971834;28;20451;-68
2021/05/25 03:45:56;;;;;;;8.40;7.80;;;;;;;;;;4972309;28;20505;-68
2021/05/25 03:48:23;;;;;;;9.00;8.40;;;;;;;;;;4972603;28;20479;-68
2021/05/25 03:50:50;;;;;;;7.50;7.00;;;;;;;;;;4972931;28;20462;-68
2021/05/25 03:53:16;;;;;;;7.20;6.73;;;;;;;;;;4972389;28;20485;-68
2021/05/25 03:55:52;;;;;;;8.40;7.70;;;;;;;;;;4972582;28;20822;-67
2021/05/25 04:01:04;;;;;;;7.70;7.30;;;;;;;;;;4972666;28;20431;-67
2021/05/25 04:03:30;;;;;;;7.57;7.17;;;;;;;;;;4972458;28;20510;-67
2021/05/25 04:05:57;;;;;;;7.47;7.07;;;;;;;;;;4972210;28;20954;-66
2021/05/25 04:08:24;;;;;;;8.03;7.53;;;;;;;;;;4970621;28;20476;-67
2021/05/25 04:10:51;;;;;;;8.00;7.50;;;;;;;;;;4972101;28;20861;-67
2021/05/25 04:13:18;;;;;;;6.80;6.50;;;;;;;;;;4972749;28;20955;-67
2021/05/25 04:15:47;;;;;;;7.43;7.03;;;;;;;;;;4976691;28;20514;-67
2021/05/25 04:18:14;;;;;;;7.40;7.00;;;;;;;;;;4976142;28;20471;-67
2021/05/25 04:20:40;;;;;;;7.27;6.67;;;;;;;;;;4976703;28;20459;-67
2021/05/25 04:23:07;;;;;;;7.20;6.80;;;;;;;;;;4976860;28;20451;-68
2021/05/25 04:25:34;;;;;;;8.43;8.03;;;;;;;;;;4969711;28;20467;-67
2021/05/25 04:28:01;;;;;;;7.63;7.13;;;;;;;;;;4957246;28;20468;-68
2021/05/25 04:30:28;;;;;;;7.30;6.90;;;;;;;;;;4974114;28;20458;-67
2021/05/25 04:32:55;;;;;;;7.50;7.10;;;;;;;;;;4976395;28;20538;-68
2021/05/25 04:35:22;;;;;;;7.80;7.30;;;;;;;;;;4975819;28;20958;-67
2021/05/25 04:37:50;;;;;;;6.90;6.50;;;;;;;;;;4976029;28;20887;-67
2021/05/25 04:40:18;;;;;;;7.43;7.03;;;;;;;;;;4975179;28;20456;-67
2021/05/25 04:42:45;;;;;;;7.63;7.23;;;;;;;;;;4976477;28;20474;-67
2021/05/25 04:45:13;;;;;;;7.90;7.23;;;;;;;;;;4974528;28;20874;-66
2021/05/25 04:47:40;;;;;;;7.80;7.30;;;;;;;;;;4975938;28;20475;-66
2021/05/25 04:50:07;;;;;;;7.17;6.77;;;;;;;;;;4975750;28;20451;-67
2021/05/25 04:52:34;;;;;;;7.80;7.30;;;;;;;;;;4975903;28;20455;-67
2021/05/25 04:55:01;;;;;;;7.40;7.00;;;;;;;;;;4974515;28;20458;-67
2021/05/25 04:57:29;;;;;;;7.83;7.43;;;;;;;;;;4975549;28;20578;-68
2021/05/25 04:59:56;;;;;;;7.53;7.13;;;;;;;;;;4975638;28;20474;-67
2021/05/25 05:02:23;;;;;;;8.47;7.83;;;;;;;;;;4975457;28;20455;-68
2021/05/25 05:04:50;;;;;;;8.80;8.10;;;;;;;;;;4975050;28;20469;-67
2021/05/25 05:07:16;;;;;;;8.77;8.27;;;;;;;;;;4974364;28;20474;-66
2021/05/25 05:09:43;;;;;;;9.60;9.10;;;;;;;;;;4975526;28;20455;-68
2021/05/25 05:12:10;;;;;;;8.13;7.77;;;;;;;;;;4974063;28;21037;-68
2021/05/25 05:14:36;;;;;;;8.03;7.63;;;;;;;;;;4975317;28;20462;-67
2021/05/25 05:17:03;;;;;;;7.40;7.00;;;;;;;;;;4973302;28;20509;-68
2021/05/25 05:19:31;;;;;;;7.23;6.80;;;;;;;;;;4973337;28;20967;-68
2021/05/25 05:21:57;;;;;;;7.70;7.30;;;;;;;;;;4975094;28;20538;-67
2021/05/25 05:24:24;;;;;;;7.50;7.10;;;;;;;;;;4973961;28;20482;-68
2021/05/25 05:26:50;;;;;;;7.73;7.33;;;;;;;;;;4956302;28;20456;-67
2021/05/25 05:29:17;;;;;;;7.80;7.40;;;;;;;;;;4971168;28;20866;-67
2021/05/25 05:31:45;;;;;;;8.30;7.80;;;;;;;;;;4974607;28;20467;-67
2021/05/25 05:34:12;;;;;;;8.47;7.97;;;;;;;;;;4970288;28;20483;-67
2021/05/25 05:36:39;;;;;;;7.97;7.47;;;;;;;;;;4974088;28;20489;-67
2021/05/25 05:39:06;;;;;;;7.87;7.47;;;;;;;;;;4975357;28;20477;-67
2021/05/25 05:41:33;;;;;;;7.87;7.43;;;;;;;;;;4974215;28;20455;-67
2021/05/25 05:43:59;;;;;;;7.00;6.70;;;;;;;;;;4975271;28;20497;-66
2021/05/25 05:46:26;;;;;;;8.60;8.10;;;;;;;;;;4975061;28;20451;-67
2021/05/25 05:48:53;;;;;;;9.50;8.90;;;;;;;;;;4972662;28;20472;-66
2021/05/25 05:51:19;;;;;;;8.93;8.23;;;;;;;;;;4955828;29;20515;-66
2021/05/25 05:53:47;;;;;;;9.00;8.40;;;;;;;;;;4968704;28;20459;-67
2021/05/25 05:56:13;;;;;;;9.70;9.20;;;;;;;;;;4973112;28;20483;-67
2021/05/25 05:58:40;;;;;;;10.47;9.77;;;;;;;;;;4966967;28;20483;-66
2021/05/25 06:01:08;;;;;;;9.33;8.80;;;;;;;;;;4974482;28;20504;-66
2021/05/25 06:03:35;;;;;;;8.27;6.77;;;;;;;;;;4974815;28;20487;-68
2021/05/25 06:06:01;;;;;;;7.90;6.17;;;;;;;;;;4965932;28;20836;-68
2021/05/25 06:08:28;;;;;;;9.30;8.73;;;;;;;;;;4964463;28;20475;-67
2021/05/25 06:10:55;;;;;;;8.67;8.17;;;;;;;;;;4974878;28;20817;-68
2021/05/25 06:13:23;;;;;;;7.77;7.27;;;;;;;;;;4974396;28;20950;-67
2021/05/25 06:15:51;;;;;;;8.00;7.20;;;;;;;;;;4974123;28;21375;-68
2021/05/25 06:18:17;;;;;;;7.67;7.03;;;;;;;;;;4974852;28;20541;-68
2021/05/25 06:20:44;;;;;;;5.93;5.50;;;;;;;;;;4962803;28;20869;-66
2021/05/25 06:23:10;;;;;;;5.47;5.17;;;;;;;;;;4955545;29;20503;-67
2021/05/25 06:25:37;;;;;;;6.60;4.30;;;;;;;;;;4955273;29;20522;-68
2021/05/25 06:28:05;;;;;;;3.97;3.67;;;;;;;;;;4961274;28;20855;-68
2021/05/25 06:30:32;;;;;;;3.67;3.37;;;;;;;;;;4973948;28;20473;-69
2021/05/25 06:32:58;;;;;;;4.70;3.57;;;;;;;;;;4974291;28;20451;-68
2021/05/25 06:35:25;;;;;;;2.83;2.63;;;;;;;;;;4972372;28;21024;-68
2021/05/25 06:37:52;;;;;;;5.30;2.30;;;;;;;;;;4973594;28;20598;-69
2021/05/25 06:40:19;;;;;;;2.27;1.90;;;;;;;;;;4974323;28;20497;-67
2021/05/25 06:42:45;;;;;;;4.50;2.00;;;;;;;;;;4974266;28;20463;-68
2021/05/25 06:45:13;;;;;;;2.40;2.17;;;;;;;;;;4973744;28;20912;-68
2021/05/25 06:47:40;;;;;;;2.80;2.53;;;;;;;;;;4973612;28;20491;-68
2021/05/25 06:50:07;;;;;;;3.87;2.00;;;;;;;;;;4974004;28;20586;-67
2021/05/25 06:52:34;;;;;;;6.37;2.60;;;;;;;;;;4974032;28;20451;-69
2021/05/25 06:55:03;;;;;;;9.40;3.83;;;;;;;;;;4970295;28;20591;-68
2021/05/25 06:57:30;;;;;;;2.73;2.10;;;;;;;;;;4969594;28;20498;-68
2021/05/25 06:59:57;;;;;;;2.93;1.83;;;;;;;;;;4968756;28;20466;-68
2021/05/25 07:02:25;;;;;;;2.43;2.00;;;;;;;;;;4972083;28;20505;-68
2021/05/25 07:04:52;;;;;;;2.23;1.87;;;;;;;;;;4973353;28;20873;-69
2021/05/25 07:07:19;;;;;;;2.80;1.97;;;;;;;;;;4959641;28;20484;-68
2021/05/25 07:09:46;;;;;;;2.63;2.37;;;;;;;;;;4970772;28;20460;-68
2021/05/25 07:12:13;;;;;;;2.03;1.70;;;;;;;;;;4973536;28;20451;-69
2021/05/25 07:14:40;;;;;;;4.20;1.90;;;;;;;;;;4973504;28;20497;-68
2021/05/25 07:17:07;;;;;;;2.30;1.93;;;;;;;;;;4972090;28;20495;-68
2021/05/25 07:19:36;;;;;;;2.13;1.50;;;;;;;;;;4959999;28;20460;-67
2021/05/25 07:22:03;;;;;;;1.80;1.57;;;;;;;;;;4969196;28;20838;-69
2021/05/25 07:24:30;;;;;;;1.40;1.10;;;;;;;;;;4973037;28;20455;-69
2021/05/25 07:27:09;;;;;;;2.00;1.30;;;;;;;;;;4972316;28;20455;-64
2021/05/25 07:29:35;;;;;;;1.90;1.70;;;;;;;;;;4973439;28;20448;-67
2021/05/25 07:32:02;;;;;;;1.63;1.53;;;;;;;;;;4972518;28;20452;-67
2021/05/25 07:34:29;;;;;;;1.80;1.70;;;;;;;;;;4973383;28;20828;-65
2021/05/25 07:36:56;;;;;;;1.97;1.70;;;;;;;;;;4971552;28;20486;-65
2021/05/25 07:39:23;;;;;;;1.63;1.53;;;;;;;;;;4972759;28;20952;-64
2021/05/25 07:41:50;;;;;;;2.00;1.73;;;;;;;;;;4972243;28;20469;-64
2021/05/25 07:44:16;;;;;;;1.80;1.60;;;;;;;;;;4972771;28;20458;-64
2021/05/25 07:46:43;;;;;;;2.00;1.63;;;;;;;;;;4965109;28;20444;-65
2021/05/25 07:49:10;;;;;;;1.33;1.23;;;;;;;;;;4971627;28;20452;-65
2021/05/25 07:51:36;;;;;;;1.90;1.50;;;;;;;;;;4969702;28;20546;-68
2021/05/25 07:54:04;;;;;;;2.10;1.73;;;;;;;;;;4972756;28;20458;-67
2021/05/25 07:56:31;;;;;;;1.43;1.00;;;;;;;;;;4972852;28;20471;-66
2021/05/25 07:58:57;;;;;;;4.80;4.50;;;;;;;;;;4972437;28;20483;-65
2021/05/25 08:01:24;;;;;;;6.70;6.30;;;;;;;;;;5023782;23;20498;-60
2021/05/25 08:03:51;;;;;;;6.27;5.87;;;;;;;;;;5001318;28;20541;-61
2021/05/25 08:06:17;;;;;;;6.10;5.60;;;;;;;;;;5009678;28;20952;-61
2021/05/25 08:08:44;;;;;;;5.80;5.40;;;;;;;;;;5010577;28;20472;-61
2021/05/25 08:11:13;;;;;;;5.80;5.40;;;;;;;;;;5002549;28;20469;-61
2021/05/25 08:13:40;;;;;;;4.93;4.60;;;;;;;;;;5010120;28;20457;-61
2021/05/25 08:16:07;;;;;;;4.87;4.57;;;;;;;;;;5010456;28;20903;-61
2021/05/25 08:18:46;;;;;;;5.37;5.00;;;;;;;;;;5011815;28;20449;-61
2021/05/25 08:21:13;;;;;;;5.03;4.63;;;;;;;;;;5010701;28;20481;-61
2021/05/25 08:23:41;;;;;;;4.80;4.40;;;;;;;;;;5008913;28;20477;-61
2021/05/25 08:26:08;;;;;;;4.57;4.17;;;;;;;;;;5009154;28;20556;-61
2021/05/25 08:28:36;;;;;;;4.47;4.10;;;;;;;;;;5011778;28;20483;-60
2021/05/25 08:31:02;;;;;;;4.33;4.03;;;;;;;;;;5010533;28;20473;-63
2021/05/25 08:33:29;;;;;;;4.00;3.70;;;;;;;;;;5004284;28;21023;-61
2021/05/25 08:35:56;;;;;;;4.57;4.10;;;;;;;;;;5008354;28;20450;-62
2021/05/25 08:38:23;;;;;;;4.30;4.00;;;;;;;;;;4993504;28;20486;-61
2021/05/25 08:40:50;;;;;;;5.27;4.27;;;;;;;;;;4993054;28;21056;-62
2021/05/25 08:43:17;;;;;;;4.63;4.27;;;;;;;;;;5008262;28;20867;-61
2021/05/25 08:45:45;;;;;;;4.83;4.53;;;;;;;;;;5011287;28;20459;-61
2021/05/25 08:48:12;;;;;;;4.80;4.50;;;;;;;;;;5010565;28;20465;-62
2021/05/25 08:50:39;;;;;;;4.87;4.40;;;;;;;;;;5011066;28;20840;-61
2021/05/25 08:53:06;;;;;;;5.07;4.77;;;;;;;;;;5010332;28;20461;-61
2021/05/25 08:55:34;;;;;;;4.80;4.50;;;;;;;;;;5010305;28;20458;-60
2021/05/25 08:58:02;;;;;;;5.30;4.83;;;;;;;;;;5010905;28;20477;-62
2021/05/25 09:00:28;;;;;;;5.57;5.17;;;;;;;;;;5009836;28;20484;-62
2021/05/25 09:02:56;;;;;;;5.30;5.00;;;;;;;;;;5007444;28;20473;-62
2021/05/25 09:05:23;;;;;;;6.23;5.73;;;;;;;;;;5013687;28;20976;-62
2021/05/25 09:07:50;;;;;;;6.93;5.97;;;;;;;;;;5014734;28;20445;-62
2021/05/25 09:10:19;;;;;;;6.80;6.17;;;;;;;;;;5009617;28;20477;-61
2021/05/25 09:12:47;;;;;;;6.30;5.90;;;;;;;;;;5014501;28;20457;-62
2021/05/25 09:15:15;;;;;;;6.90;6.20;;;;;;;;;;5013756;28;20453;-62
2021/05/25 09:17:42;;;;;;;6.37;5.87;;;;;;;;;;5014630;28;20943;-62
2021/05/25 09:20:11;;;;;;;6.17;5.77;;;;;;;;;;5014479;28;20471;-62
2021/05/25 09:22:39;;;;;;;6.30;5.70;;;;;;;;;;5014839;28;20462;-62
2021/05/25 09:25:08;;;;;;;5.90;5.40;;;;;;;;;;5013307;28;20458;-62
2021/05/25 09:27:37;;;;;;;5.17;4.33;;;;;;;;;;5014380;28;20468;-62
2021/05/25 09:30:15;;;;;;;4.53;4.20;;;;;;;;;;5013959;28;20553;-62
2021/05/25 09:32:49;;;;;;;5.60;5.10;;;;;;;;;;5014074;28;20455;-62
2021/05/25 09:35:17;;;;;;;6.00;5.40;;;;;;;;;;5009689;28;20838;-62
2021/05/25 09:37:45;;;;;;;6.17;5.60;;;;;;;;;;5014185;28;20879;-61
2021/05/25 09:40:12;;;;;;;6.40;5.90;;;;;;;;;;5010197;28;20475;-61
2021/05/25 09:42:39;;;;;;;6.07;5.63;;;;;;;;;;4997710;28;20516;-61
2021/05/25 09:45:09;;;;;;;6.00;5.50;;;;;;;;;;5013494;28;20812;-61
2021/05/25 09:47:39;;;;;;;7.23;6.63;;;;;;;;;;5012065;28;20454;-62
2021/05/25 09:50:07;;;;;;;7.10;6.50;;;;;;;;;;5012675;28;20484;-61
2021/05/25 09:52:35;;;;;;;5.90;5.40;;;;;;;;;;5013623;28;20457;-61
2021/05/25 09:55:05;;;;;;;5.70;5.20;;;;;;;;;;5013401;28;20453;-61
2021/05/25 09:57:45;;;;;;;4.70;4.30;;;;;;;;;;5013623;28;20512;-60
2021/05/25 10:00:24;;;;;;;4.50;4.10;;;;;;;;;;5007479;28;20482;-62
2021/05/25 10:03:08;;;;;;;4.07;3.30;;;;;;;;;;4994504;28;21009;-61
2021/05/25 10:05:35;;;;;;;4.07;3.70;;;;;;;;;;5005011;28;20497;-60
2021/05/25 10:08:03;;;;;;;4.07;3.67;;;;;;;;;;5014244;28;20536;-59
2021/05/25 10:10:30;;;;;;;4.60;3.30;;;;;;;;;;5012115;28;20474;-59
2021/05/25 10:12:57;;;;;;;3.87;3.43;;;;;;;;;;4994152;28;20455;-59
2021/05/25 10:15:24;;;;;;;3.53;3.17;;;;;;;;;;5000308;28;20835;-62
2021/05/25 10:20:50;;;;;;;3.50;3.20;;;;;;;;;;5013533;28;20458;-61
2021/05/25 10:23:19;;;;;;;4.60;3.70;;;;;;;;;;5013627;28;20456;-61
2021/05/25 10:25:48;;;;;;;4.33;3.93;;;;;;;;;;5009575;28;20453;-61
2021/05/25 10:28:14;;;;;;;4.40;3.80;;;;;;;;;;5003155;28;20465;-61
2021/05/25 10:30:44;;;;;;;4.30;3.90;;;;;;;;;;5013158;28;20996;-61
2021/05/25 10:33:24;;;;;;;5.27;4.77;;;;;;;;;;5013330;28;20468;-61
2021/05/25 10:35:52;;;;;;;5.30;4.90;;;;;;;;;;5008318;28;20465;-61
2021/05/25 10:38:21;;;;;;;5.53;5.10;;;;;;;;;;5012742;28;20485;-61
2021/05/25 10:40:49;;;;;;;7.57;6.97;;;;;;;;;;5013071;28;20473;-61
2021/05/25 10:43:34;;;;;;;8.63;7.47;;;;;;;;;;5011448;28;20466;-61
2021/05/25 10:46:15;;;;;;;9.30;8.27;;;;;;;;;;5011413;28;20441;-61
2021/05/25 10:48:49;;;;;;;9.87;9.07;;;;;;;;;;5003194;28;20485;-61
2021/05/25 10:51:16;;;;;;;9.00;8.10;;;;;;;;;;5012995;28;20853;-62
2021/05/25 10:53:44;;;;;;;7.60;7.00;;;;;;;;;;5012695;28;20515;-62
2021/05/25 10:56:24;;;;;;;9.13;8.27;;;;;;;;;;5012595;28;20983;-61
2021/05/25 10:59:00;;;;;;;7.27;6.77;;;;;;;;;;5012866;28;20442;-61
2021/05/25 11:01:29;;;;;;;7.30;6.73;;;;;;;;;;5009021;28;20480;-60
2021/05/25 11:04:06;;;;;;;7.87;7.13;;;;;;;;;;4993282;28;20450;-61
2021/05/25 11:06:32;;;;;;;7.70;7.00;;;;;;;;;;5011190;28;20457;-60
2021/05/25 11:09:14;;;;;;;5.80;5.20;;;;;;;;;;5013277;28;20450;-60
2021/05/25 11:11:41;;;;;;;4.43;3.90;;;;;;;;;;5012114;28;20474;-61
2021/05/25 11:14:13;;;;;;;2.90;2.70;;;;;;;;;;5012369;28;20456;-61
2021/05/25 11:16:40;;;;;;;3.50;2.33;;;;;;;;;;5012737;28;20440;-61
2021/05/25 11:19:33;;;;;;;3.63;2.10;;;;;;;;;;5012719;28;20500;-61
2021/05/25 11:22:13;;;;;;;3.30;2.97;;;;;;;;;;4993279;28;21017;-61
2021/05/25 11:24:41;;;;;;;4.07;3.63;;;;;;;;;;4995689;28;21011;-61
2021/05/25 11:27:11;;;;;;;3.77;3.40;;;;;;;;;;4992757;28;20450;-61
2021/05/25 11:29:39;;;;;;;5.90;3.60;;;;;;;;;;5005685;28;20519;-61
2021/05/25 11:32:07;;;;;;;4.60;3.90;;;;;;;;;;5012515;28;20488;-61
2021/05/25 11:34:34;;;;;;;4.93;3.73;;;;;;;;;;5012424;28;20552;-61
2021/05/25 11:37:03;;;;;;;4.20;3.80;;;;;;;;;;5011814;28;20848;-61
2021/05/25 11:39:32;;;;;;;3.20;2.90;;;;;;;;;;5011735;28;20457;-61
2021/05/25 11:41:59;;;;;;;4.50;3.20;;;;;;;;;;5011977;28;20447;-61
2021/05/25 11:44:34;;;;;;;3.37;3.10;;;;;;;;;;5012172;28;20511;-61
2021/05/25 11:47:05;;;;;;;4.00;3.40;;;;;;;;;;5011765;28;20536;-61
2021/05/25 11:49:33;;;;;;;4.50;3.50;;;;;;;;;;5012204;28;20488;-62
2021/05/25 11:52:00;;;;;;;5.70;2.93;;;;;;;;;;5011843;28;20464;-61
2021/05/25 11:54:30;;;;;;;3.87;2.30;;;;;;;;;;5002270;28;20451;-59
2021/05/25 11:56:56;;;;;;;2.20;2.00;;;;;;;;;;4998260;28;20531;-59
2021/05/25 11:59:24;;;;;;;2.07;1.57;;;;;;;;;;5012248;28;20971;-59
2021/05/25 12:01:52;;;;;;;2.20;1.60;;;;;;;;;;5011195;28;20462;-59
2021/05/25 12:04:20;;;;;;;2.37;1.73;;;;;;;;;;5011565;28;20462;-59
2021/05/25 12:06:47;;;;;;;4.33;2.43;;;;;;;;;;5011586;28;20968;-61
2021/05/25 12:09:14;;;;;;;3.10;2.30;;;;;;;;;;5011003;28;20449;-62
2021/05/25 12:11:41;;;;;;;4.40;2.23;;;;;;;;;;5011292;28;20531;-60
2021/05/25 12:14:08;;;;;;;3.03;2.23;;;;;;;;;;5011149;28;20465;-61
2021/05/25 12:16:35;;;;;;;2.60;2.00;;;;;;;;;;4996993;28;20972;-58
2021/05/25 12:19:03;;;;;;;3.90;2.17;;;;;;;;;;4992297;28;20450;-58
2021/05/25 12:21:29;;;;;;;2.90;2.33;;;;;;;;;;5008938;28;20524;-61
2021/05/25 12:23:56;;;;;;;1.97;1.77;;;;;;;;;;5011150;28;20496;-61
2021/05/25 12:26:24;;;;;;;2.40;1.87;;;;;;;;;;4993811;28;20463;-61
2021/05/25 12:28:51;;;;;;;2.73;1.90;;;;;;;;;;4992923;28;20458;-58
2021/05/25 12:31:18;;;;;;;3.93;2.60;;;;;;;;;;5013720;28;20493;-59
2021/05/25 12:33:46;;;;;;;5.03;2.63;;;;;;;;;;5011902;28;20824;-59
2021/05/25 12:36:14;;;;;;;5.30;2.70;;;;;;;;;;4998937;28;21112;-59
2021/05/25 12:38:41;;;;;;;3.40;2.23;;;;;;;;;;4996028;28;20555;-59
2021/05/25 12:41:07;;;;;;;4.03;2.47;;;;;;;;;;5013234;28;20465;-59
2021/05/25 12:43:34;;;;;;;3.60;2.80;;;;;;;;;;5015274;28;20455;-59
2021/05/25 12:46:08;;;;;;;4.30;3.13;;;;;;;;;;5014857;28;20456;-62
2021/05/25 12:48:35;;;;;;;4.67;3.70;;;;;;;;;;5014941;28;20485;-61
2021/05/25 12:51:02;;;;;;;3.73;3.00;;;;;;;;;;5009396;28;20504;-59
2021/05/25 12:53:30;;;;;;;4.10;3.23;;;;;;;;;;5013933;28;20519;-60
2021/05/25 12:55:59;;;;;;;3.20;2.80;;;;;;;;;;5015014;28;20541;-59
2021/05/25 12:58:36;;;;;;;2.80;2.50;;;;;;;;;;5014602;28;21082;-60
2021/05/25 13:01:17;;;;;;;2.60;2.20;;;;;;;;;;5014685;28;20480;-59
2021/05/25 13:03:44;;;;;;;4.10;3.10;;;;;;;;;;5013399;28;20473;-60
2021/05/25 13:06:12;;;;;;;2.90;2.20;;;;;;;;;;5011674;28;20520;-60
2021/05/25 13:08:41;;;;;;;3.00;2.17;;;;;;;;;;5014707;28;20453;-60
2021/05/25 13:11:08;;;;;;;3.30;2.20;;;;;;;;;;5014695;28;20519;-60
2021/05/25 13:13:38;;;;;;;2.10;1.90;;;;;;;;;;5014983;28;20457;-61
2021/05/25 13:16:05;;;;;;;3.67;2.10;;;;;;;;;;5012948;28;20456;-60
2021/05/25 13:18:39;;;;;;;1.90;1.70;;;;;;;;;;4997222;28;20549;-62
2021/05/25 13:21:08;;;;;;;1.50;1.40;;;;;;;;;;5010404;28;20469;-61
2021/05/25 13:23:35;;;;;;;1.53;1.40;;;;;;;;;;5014789;28;20455;-61
2021/05/25 13:26:12;;;;;;;1.87;1.63;;;;;;;;;;5014097;28;20824;-61
2021/05/25 13:28:45;;;;;;;1.40;1.30;;;;;;;;;;5014206;28;20446;-61
2021/05/25 13:31:15;;;;;;;2.10;1.50;;;;;;;;;;4999289;28;20478;-61
2021/05/25 13:33:42;;;;;;;1.80;1.30;;;;;;;;;;4999850;28;20456;-61
2021/05/25 13:36:09;;;;;;;3.33;1.50;;;;;;;;;;5014417;28;20522;-61
2021/05/25 13:38:35;;;;;;;2.27;1.40;;;;;;;;;;5013059;28;20844;-61
2021/05/25 13:41:03;;;;;;;2.43;1.87;;;;;;;;;;5003638;28;20474;-61
2021/05/25 13:43:29;;;;;;;2.13;1.33;;;;;;;;;;5007378;28;20548;-60
2021/05/25 13:45:56;;;;;;;1.80;1.50;;;;;;;;;;5013918;28;20454;-61
2021/05/25 13:48:23;;;;;;;3.53;2.00;;;;;;;;;;5013945;28;20945;-61
2021/05/25 13:50:49;;;;;;;1.90;1.70;;;;;;;;;;5013292;28;20465;-61
2021/05/25 13:53:16;;;;;;;2.13;1.93;;;;;;;;;;5013885;28;20456;-61
2021/05/25 13:55:42;;;;;;;2.27;1.90;;;;;;;;;;5013413;28;20519;-60
2021/05/25 13:58:10;;;;;;;2.90;2.40;;;;;;;;;;5013777;28;20544;-60
2021/05/25 14:00:48;;;;;;;5.57;2.77;;;;;;;;;;5029345;23;20498;-66
2021/05/25 14:03:14;;;;;;;3.40;2.93;;;;;;;;;;4971641;28;21048;-67
2021/05/25 14:05:41;;;;;;;5.10;2.90;;;;;;;;;;4981275;28;20459;-67
2021/05/25 14:08:08;;;;;;;3.67;3.37;;;;;;;;;;4974703;28;20451;-69
2021/05/25 14:10:35;;;;;;;3.63;3.30;;;;;;;;;;4985647;28;20474;-67
2021/05/25 14:13:02;;;;;;;3.40;3.10;;;;;;;;;;4993965;28;20454;-67
2021/05/25 14:15:32;;;;;;;3.93;3.57;;;;;;;;;;4994068;28;20446;-66
2021/05/25 14:17:59;;;;;;;6.03;3.70;;;;;;;;;;4993876;28;20521;-66
2021/05/25 14:20:25;;;;;;;4.47;4.07;;;;;;;;;;4994069;28;20509;-67
2021/05/25 14:22:53;;;;;;;4.27;3.80;;;;;;;;;;4994086;28;20453;-67
2021/05/25 14:25:20;;;;;;;5.63;5.13;;;;;;;;;;4977856;28;20844;-67
2021/05/25 14:27:47;;;;;;;6.17;5.67;;;;;;;;;;4973947;28;20452;-67
2021/05/25 14:30:14;;;;;;;6.60;6.00;;;;;;;;;;4974466;28;20452;-67
2021/05/25 14:32:41;;;;;;;6.43;5.90;;;;;;;;;;4979299;28;20460;-67
2021/05/25 14:35:08;;;;;;;7.20;6.60;;;;;;;;;;4993941;28;20835;-68
2021/05/25 14:37:35;;;;;;;7.33;6.80;;;;;;;;;;4987291;28;20483;-65
2021/05/25 14:40:02;;;;;;;7.67;7.00;;;;;;;;;;4971997;28;20867;-66
2021/05/25 14:42:28;;;;;;;6.77;6.23;;;;;;;;;;4963945;28;20475;-67
2021/05/25 14:44:55;;;;;;;7.70;5.93;;;;;;;;;;4972150;28;20534;-68
2021/05/25 14:47:21;;;;;;;8.33;7.30;;;;;;;;;;4972549;28;20473;-66
2021/05/25 14:49:49;;;;;;;6.80;6.30;;;;;;;;;;4974257;28;20850;-67
2021/05/25 14:52:16;;;;;;;7.13;6.53;;;;;;;;;;4981090;28;20474;-67
2021/05/25 14:54:43;;;;;;;6.40;5.90;;;;;;;;;;4974999;28;20472;-67